Time;durP1;ratioP1;P1;durP2;ratioP2;P2;SDS_P1;SDS_P2;PMS_P1;PMS_P2;Temp;Humidity;BMP_temperature;BMP_pressure;BME280_temperature;BME280_humidity;BME280_pressure;Samples;Min_cycle;Max_cycle;Signal;HPM_P1;HPM_P2
2023/03/25 00:01:01;;;;;;;2.10;0.80;;;;;;;10.04;75.34;99436.78;5080825;28;20212;-69
2023/03/25 00:03:29;;;;;;;1.00;0.63;;;;;;;10.05;75.19;99434.97;5080825;28;20226;-68
2023/03/25 00:05:57;;;;;;;2.40;0.70;;;;;;;10.05;75.49;99421.66;5080215;28;20232;-69
2023/03/25 00:08:25;;;;;;;3.43;0.97;;;;;;;10.06;75.51;99431.34;5084405;28;20205;-69
2023/03/25 00:10:53;;;;;;;3.17;0.50;;;;;;;10.07;75.56;99425.91;5085769;28;20205;-68
2023/03/25 00:13:20;;;;;;;2.50;0.63;;;;;;;10.06;75.49;99429.53;5083270;28;20258;-68
2023/03/25 00:15:46;;;;;;;2.63;0.80;;;;;;;10.04;75.15;99422.63;5085779;28;20203;-68
2023/03/25 00:18:13;;;;;;;1.30;0.60;;;;;;;10.05;75.70;99429.66;5083386;28;20647;-67
2023/03/25 00:20:40;;;;;;;1.50;0.43;;;;;;;10.03;75.15;99431.63;5085671;28;20208;-68
2023/03/25 00:23:07;;;;;;;2.17;0.70;;;;;;;10.02;75.49;99425.44;5083884;28;20465;-68
2023/03/25 00:25:35;;;;;;;2.93;1.00;;;;;;;10.00;75.18;99429.19;5085539;28;20205;-68
2023/03/25 00:28:02;;;;;;;2.30;0.70;;;;;;;10.00;75.77;99427.38;5080712;28;20295;-68
2023/03/25 00:30:29;;;;;;;1.13;0.67;;;;;;;9.98;75.16;99426.66;5086272;28;20200;-68
2023/03/25 00:32:56;;;;;;;1.83;0.60;;;;;;;9.95;75.34;99429.56;5083988;28;20326;-68
2023/03/25 00:35:24;;;;;;;1.10;0.63;;;;;;;9.94;75.31;99427.03;5085628;28;20651;-68
2023/03/25 00:37:56;;;;;;;1.70;0.87;;;;;;;9.92;75.25;99421.81;5083795;28;20224;-68
2023/03/25 00:40:22;;;;;;;2.23;0.67;;;;;;;9.92;75.61;99423.63;5081742;28;20283;-68
2023/03/25 00:42:50;;;;;;;2.17;0.57;;;;;;;9.87;75.46;99424.00;5084623;28;20231;-68
2023/03/25 00:45:17;;;;;;;2.20;0.60;;;;;;;9.86;75.24;99434.75;5079492;28;20224;-68
2023/03/25 00:47:43;;;;;;;1.67;0.70;;;;;;;9.84;75.48;99424.25;5082276;28;20200;-68
2023/03/25 00:50:11;;;;;;;1.37;0.70;;;;;;;9.85;75.02;99425.09;5081587;28;20204;-70
2023/03/25 00:52:37;;;;;;;2.60;0.60;;;;;;;9.86;74.99;99426.78;5082070;28;20243;-68
2023/03/25 00:55:05;;;;;;;2.07;0.50;;;;;;;9.82;75.66;99431.50;5085858;28;20204;-68
2023/03/25 00:57:32;;;;;;;1.93;0.73;;;;;;;9.80;75.52;99437.91;5080572;28;20228;-68
2023/03/25 01:00:00;;;;;;;1.23;0.60;;;;;;;9.78;75.37;99426.56;5081264;28;20204;-69
2023/03/25 01:02:26;;;;;;;1.27;0.60;;;;;;;9.74;75.60;99429.44;5085748;28;20231;-68
2023/03/25 01:04:53;;;;;;;2.17;0.90;;;;;;;9.75;75.64;99431.13;5084551;28;20211;-69
2023/03/25 01:07:20;;;;;;;2.77;0.77;;;;;;;9.74;75.78;99431.25;5083467;28;20222;-68
2023/03/25 01:09:47;;;;;;;1.93;0.70;;;;;;;9.73;75.64;99424.25;5083973;28;20200;-68
2023/03/25 01:12:14;;;;;;;2.53;0.60;;;;;;;9.72;75.42;99430.53;5083469;28;20196;-68
2023/03/25 01:14:41;;;;;;;1.70;0.60;;;;;;;9.69;75.43;99425.44;5079766;28;20193;-68
2023/03/25 01:17:09;;;;;;;1.17;0.73;;;;;;;9.67;76.09;99420.25;5083015;28;20317;-69
2023/03/25 01:19:36;;;;;;;2.10;0.90;;;;;;;9.67;75.86;99419.44;5090331;28;20204;-68
2023/03/25 01:22:02;;;;;;;1.07;0.50;;;;;;;9.65;75.44;99408.94;5085638;28;20200;-68
2023/03/25 01:24:29;;;;;;;1.43;0.60;;;;;;;9.65;75.86;99414.25;5081946;28;20277;-68
2023/03/25 01:26:55;;;;;;;1.93;0.60;;;;;;;9.64;76.00;99412.53;5080958;28;20212;-68
2023/03/25 01:29:22;;;;;;;1.80;0.50;;;;;;;9.62;75.93;99413.63;5084120;28;20203;-68
2023/03/25 01:31:48;;;;;;;2.07;0.70;;;;;;;9.62;76.11;99406.50;5085558;28;20208;-68
2023/03/25 01:34:16;;;;;;;4.20;0.63;;;;;;;9.63;76.30;99408.19;5082964;28;20236;-68
2023/03/25 01:36:45;;;;;;;2.23;0.60;;;;;;;9.67;76.13;99400.81;5081188;28;20302;-68
2023/03/25 01:39:15;;;;;;;1.80;0.70;;;;;;;9.66;75.86;99417.75;5083149;28;20224;-69
2023/03/25 01:41:42;;;;;;;3.47;0.73;;;;;;;9.68;76.42;99411.31;5083112;28;20652;-68
2023/03/25 01:44:30;;;;;;;1.93;0.60;;;;;;;9.66;76.03;99409.78;5087218;28;20236;-68
2023/03/25 01:47:02;;;;;;;3.03;0.90;;;;;;;9.70;75.93;99411.19;5088466;28;20220;-68
2023/03/25 01:49:37;;;;;;;2.43;0.90;;;;;;;9.70;76.08;99400.56;5087195;28;20675;-68
2023/03/25 01:52:09;;;;;;;3.00;0.73;;;;;;;9.70;76.34;99406.72;5084445;28;20208;-68
2023/03/25 01:54:37;;;;;;;1.47;0.70;;;;;;;9.72;76.41;99399.47;5088746;28;20207;-68
2023/03/25 01:57:04;;;;;;;2.90;0.80;;;;;;;9.70;76.29;99401.41;5081827;28;20208;-68
2023/03/25 01:59:31;;;;;;;0.70;0.63;;;;;;;9.71;75.91;99395.13;5085608;28;20236;-68
2023/03/25 02:02:03;;;;;;;1.40;0.70;;;;;;;9.72;76.21;99390.66;5076960;28;20205;-69
2023/03/25 02:04:37;;;;;;;2.27;0.90;;;;;;;9.72;76.07;99404.78;5084022;28;20221;-67
2023/03/25 02:07:07;;;;;;;2.23;0.73;;;;;;;9.68;76.54;99397.16;5083547;28;20727;-66
2023/03/25 02:09:34;;;;;;;1.90;0.80;;;;;;;9.67;76.84;99398.16;5085467;28;20204;-66
2023/03/25 02:12:01;;;;;;;2.43;0.70;;;;;;;9.65;76.67;99416.06;5088389;28;20219;-66
2023/03/25 02:14:32;;;;;;;3.23;0.50;;;;;;;9.66;77.56;99428.38;5086710;28;20225;-67
2023/03/25 02:17:09;;;;;;;1.10;0.60;;;;;;;9.65;77.46;99411.59;5083176;28;20207;-66
2023/03/25 02:20:23;;;;;;;4.10;0.90;;;;;;;9.59;78.40;99401.41;5084086;28;20223;-67
2023/03/25 02:23:31;;;;;;;1.47;0.70;;;;;;;9.51;78.86;99411.78;5083566;28;20230;-67
2023/03/25 02:26:41;;;;;;;0.83;0.70;;;;;;;9.43;79.71;99403.59;5067764;28;20201;-66
2023/03/25 02:29:22;;;;;;;1.40;0.60;;;;;;;9.35;80.48;99404.19;5047181;28;20620;-66
2023/03/25 02:32:06;;;;;;;2.10;0.70;;;;;;;9.31;80.28;99393.94;5081963;28;20640;-66
2023/03/25 02:34:47;;;;;;;1.57;0.77;;;;;;;9.30;80.82;99408.19;5080536;28;20224;-66
2023/03/25 02:37:47;;;;;;;2.00;0.87;;;;;;;9.25;80.83;99397.91;5087795;28;20197;-66
2023/03/25 02:40:20;;;;;;;2.57;0.90;;;;;;;9.25;80.63;99400.56;5083168;28;20203;-66
2023/03/25 02:42:51;;;;;;;1.30;0.80;;;;;;;9.20;81.10;99407.19;5084481;28;20232;-67
2023/03/25 02:45:25;;;;;;;0.93;0.87;;;;;;;9.19;81.09;99405.50;5086146;28;20208;-66
2023/03/25 02:47:58;;;;;;;1.30;0.90;;;;;;;9.15;81.46;99402.22;5088866;28;20208;-67
2023/03/25 02:50:29;;;;;;;1.30;0.70;;;;;;;9.13;81.50;99406.84;5089151;28;20257;-66
2023/03/25 02:53:00;;;;;;;2.17;0.83;;;;;;;9.13;81.37;99406.84;5090681;28;20224;-66
2023/03/25 02:55:29;;;;;;;2.83;0.93;;;;;;;9.10;81.13;99395.59;5093205;28;20208;-66
2023/03/25 02:57:58;;;;;;;2.13;1.27;;;;;;;9.10;81.34;99385.81;5087626;28;20259;-66
2023/03/25 03:00:27;;;;;;;1.60;0.90;;;;;;;9.06;81.11;99387.00;5087135;28;20200;-66
2023/03/25 03:02:58;;;;;;;2.43;0.80;;;;;;;9.05;80.55;99398.59;5088814;28;20235;-66
2023/03/25 03:05:27;;;;;;;1.63;1.00;;;;;;;9.04;80.75;99392.44;5082921;28;20200;-66
2023/03/25 03:08:08;;;;;;;3.03;1.33;;;;;;;9.00;80.81;99380.34;5088452;28;20796;-66
2023/03/25 03:10:43;;;;;;;2.73;0.87;;;;;;;8.99;80.29;99389.28;5090826;28;20232;-66
2023/03/25 03:13:20;;;;;;;3.07;1.10;;;;;;;8.99;79.46;99389.28;5087891;28;20223;-67
2023/03/25 03:15:56;;;;;;;2.23;0.90;;;;;;;8.98;79.59;99376.97;5086051;28;20572;-66
2023/03/25 03:18:36;;;;;;;3.30;1.20;;;;;;;8.99;78.97;99383.97;5088745;28;20326;-66
2023/03/25 03:21:09;;;;;;;2.33;1.07;;;;;;;8.97;79.00;99388.56;5088772;28;20231;-65
2023/03/25 03:23:49;;;;;;;1.80;1.10;;;;;;;8.94;79.18;99377.34;5083215;28;20485;-66
2023/03/25 03:26:26;;;;;;;3.67;1.00;;;;;;;8.94;79.24;99375.53;5086378;28;20203;-66
2023/03/25 03:29:01;;;;;;;2.97;1.30;;;;;;;8.93;78.65;99373.84;5087516;28;20231;-66
2023/03/25 03:31:36;;;;;;;2.77;1.23;;;;;;;8.88;78.69;99373.34;5086171;28;20568;-66
2023/03/25 03:34:09;;;;;;;4.73;1.10;;;;;;;8.88;78.77;99377.81;5085979;28;20231;-65
2023/03/25 03:36:40;;;;;;;3.33;1.27;;;;;;;8.89;78.09;99379.50;5081939;28;20200;-66
2023/03/25 03:39:15;;;;;;;2.63;1.20;;;;;;;8.86;78.16;99367.28;5083281;28;20227;-66
2023/03/25 03:41:46;;;;;;;2.67;1.00;;;;;;;8.86;77.88;99362.00;5081890;28;20200;-66
2023/03/25 03:44:16;;;;;;;4.03;1.30;;;;;;;8.85;77.33;99375.38;5084312;28;20228;-67
2023/03/25 03:46:48;;;;;;;3.27;1.30;;;;;;;8.82;76.71;99381.75;5089432;28;20200;-67
2023/03/25 03:49:18;;;;;;;3.23;1.13;;;;;;;8.80;77.49;99388.16;5084965;28;20203;-67
2023/03/25 03:51:49;;;;;;;4.03;1.50;;;;;;;8.76;77.04;99387.56;5082332;28;20211;-66
2023/03/25 03:54:22;;;;;;;3.63;1.20;;;;;;;8.78;76.58;99401.53;5083111;28;20895;-66
2023/03/25 03:56:54;;;;;;;3.87;0.73;;;;;;;8.79;77.21;99389.97;5084827;28;20210;-67
2023/03/25 03:59:27;;;;;;;2.33;1.20;;;;;;;8.79;76.38;99403.22;5085273;28;20228;-66
2023/03/25 04:02:00;;;;;;;3.17;1.40;;;;;;;8.77;75.82;99394.56;5086593;28;20208;-66
2023/03/25 04:04:27;;;;;;;4.10;1.37;;;;;;;8.79;76.24;99395.25;5090520;28;20220;-66
2023/03/25 04:06:58;;;;;;;4.40;1.30;;;;;;;8.78;76.05;99395.41;5080577;28;20261;-67
2023/03/25 04:09:33;;;;;;;3.73;1.33;;;;;;;8.79;75.66;99392.63;5086227;28;20211;-67
2023/03/25 04:12:05;;;;;;;3.53;1.20;;;;;;;8.80;75.40;99399.63;5077885;28;20228;-66
2023/03/25 04:14:32;;;;;;;5.67;1.60;;;;;;;8.84;76.24;99393.13;5086309;28;20222;-66
2023/03/25 04:16:59;;;;;;;4.37;1.27;;;;;;;8.84;75.54;99398.44;5085304;28;20228;-65
2023/03/25 04:19:26;;;;;;;3.90;1.70;;;;;;;8.84;75.88;99401.09;5083348;28;20251;-67
2023/03/25 04:21:53;;;;;;;6.00;1.87;;;;;;;8.87;75.64;99400.84;5084677;28;20209;-65
2023/03/25 04:24:20;;;;;;;2.63;1.30;;;;;;;8.87;75.93;99410.63;5092569;28;20227;-67
2023/03/25 04:26:48;;;;;;;2.50;1.23;;;;;;;8.87;75.65;99414.13;5086388;28;20901;-65
2023/03/25 04:29:14;;;;;;;2.77;1.23;;;;;;;8.87;75.48;99411.47;5086640;28;20204;-66
2023/03/25 04:31:44;;;;;;;2.67;1.03;;;;;;;8.86;76.45;99425.72;5081518;28;20200;-65
2023/03/25 04:34:12;;;;;;;4.23;1.47;;;;;;;8.84;76.93;99426.78;5092404;28;20247;-65
2023/03/25 04:36:40;;;;;;;1.60;1.50;;;;;;;8.83;77.89;99423.28;5086336;28;20667;-65
2023/03/25 04:39:07;;;;;;;2.93;1.63;;;;;;;8.77;78.23;99425.56;5084877;28;21873;-64
2023/03/25 04:41:34;;;;;;;2.63;1.40;;;;;;;8.71;79.63;99421.56;5081198;28;20675;-64
2023/03/25 04:44:01;;;;;;;1.30;0.97;;;;;;;8.63;80.74;99413.31;5084590;28;20248;-64
2023/03/25 04:46:28;;;;;;;2.33;0.83;;;;;;;8.48;80.27;99410.00;5083684;28;20219;-65
2023/03/25 04:48:55;;;;;;;1.20;0.80;;;;;;;8.43;79.53;99424.56;5083257;28;20208;-65
2023/03/25 04:51:22;;;;;;;1.70;0.60;;;;;;;8.33;80.29;99419.94;5089000;28;20301;-65
2023/03/25 04:53:48;;;;;;;1.53;0.70;;;;;;;8.29;81.70;99426.41;5083801;28;20705;-65
2023/03/25 04:56:17;;;;;;;0.83;0.60;;;;;;;8.21;82.49;99425.28;5084606;28;20200;-65
2023/03/25 04:58:44;;;;;;;1.43;0.70;;;;;;;8.12;82.69;99415.31;5085559;28;20220;-65
2023/03/25 05:01:20;;;;;;;1.63;0.60;;;;;;;8.06;83.45;99416.59;5083246;28;20224;-65
2023/03/25 05:03:49;;;;;;;2.43;1.47;;;;;;;8.02;84.66;99420.47;5088386;28;20222;-65
2023/03/25 05:06:15;;;;;;;2.53;1.20;;;;;;;8.02;85.44;99417.81;5089818;28;20226;-65
2023/03/25 05:08:42;;;;;;;2.53;1.10;;;;;;;8.01;85.64;99413.47;5083927;28;20597;-65
2023/03/25 05:11:08;;;;;;;1.67;1.20;;;;;;;8.01;85.73;99414.31;5088369;28;20744;-64
2023/03/25 05:13:35;;;;;;;2.43;1.40;;;;;;;8.00;86.24;99411.78;5088118;28;20240;-65
2023/03/25 05:16:01;;;;;;;2.57;1.30;;;;;;;8.02;85.99;99412.50;5087296;28;20203;-65
2023/03/25 05:18:30;;;;;;;1.33;1.23;;;;;;;8.01;86.26;99416.97;5082344;28;20204;-65
2023/03/25 05:20:56;;;;;;;3.43;1.70;;;;;;;8.03;87.42;99416.84;5086540;28;20202;-65
2023/03/25 05:23:23;;;;;;;2.60;1.40;;;;;;;8.02;86.72;99421.31;5082753;28;20238;-65
2023/03/25 05:25:51;;;;;;;3.67;1.60;;;;;;;8.01;87.59;99416.97;5083062;28;20204;-65
2023/03/25 05:28:18;;;;;;;3.83;1.33;;;;;;;7.98;88.01;99414.53;5080711;28;20208;-65
2023/03/25 05:30:46;;;;;;;3.10;1.50;;;;;;;7.96;88.12;99408.50;5085597;28;20659;-65
2023/03/25 05:33:15;;;;;;;5.47;1.53;;;;;;;7.97;88.05;99404.03;5075253;28;20236;-65
2023/03/25 05:35:44;;;;;;;2.27;1.50;;;;;;;7.98;88.60;99416.34;5087984;28;20250;-64
2023/03/25 05:38:12;;;;;;;6.43;1.97;;;;;;;8.00;88.78;99409.97;5081294;28;20216;-65
2023/03/25 05:40:39;;;;;;;4.67;2.60;;;;;;;8.01;89.05;99421.41;5075605;28;20220;-65
2023/03/25 05:43:07;;;;;;;4.63;1.63;;;;;;;7.99;88.17;99424.19;5089831;28;20748;-64
2023/03/25 05:45:35;;;;;;;2.43;1.30;;;;;;;8.00;89.21;99419.72;5088089;28;20208;-65
2023/03/25 05:48:02;;;;;;;4.37;2.17;;;;;;;8.06;88.10;99423.75;5086418;28;20227;-65
2023/03/25 05:50:28;;;;;;;5.67;2.20;;;;;;;8.04;88.62;99425.66;5083739;28;20204;-65
2023/03/25 05:52:58;;;;;;;3.17;2.00;;;;;;;8.04;89.15;99431.81;5083571;28;20224;-65
2023/03/25 05:55:26;;;;;;;3.50;1.87;;;;;;;8.00;87.98;99430.34;5087575;28;20212;-65
2023/03/25 05:57:52;;;;;;;3.70;1.83;;;;;;;8.01;87.25;99435.53;5086427;28;20792;-65
2023/03/25 06:00:20;;;;;;;3.33;2.13;;;;;;;8.07;87.43;99428.91;5086041;28;20224;-66
2023/03/25 06:02:47;;;;;;;4.40;2.30;;;;;;;8.08;86.95;99438.56;5081761;28;20220;-65
2023/03/25 06:05:16;;;;;;;2.70;2.33;;;;;;;8.10;86.80;99425.19;5083914;28;20233;-65
2023/03/25 06:07:44;;;;;;;3.40;2.27;;;;;;;8.14;86.34;99421.38;5085730;28;20204;-65
2023/03/25 06:10:15;;;;;;;4.87;2.23;;;;;;;8.18;86.41;99418.38;5080981;28;20205;-64
2023/03/25 06:12:42;;;;;;;3.47;1.93;;;;;;;8.24;85.42;99425.88;5087263;28;20311;-65
2023/03/25 06:15:11;;;;;;;3.20;1.93;;;;;;;8.29;86.08;99417.59;5081347;28;20204;-65
2023/03/25 06:17:38;;;;;;;2.93;2.00;;;;;;;8.31;85.22;99421.81;5084632;28;20204;-65
2023/03/25 06:20:10;;;;;;;2.67;1.83;;;;;;;8.35;85.19;99433.94;5092478;28;20631;-65
2023/03/25 06:22:37;;;;;;;3.00;1.90;;;;;;;8.39;84.88;99429.28;5088007;28;20227;-65
2023/03/25 06:25:04;;;;;;;5.57;2.10;;;;;;;8.41;84.11;99431.81;5082525;28;20255;-66
2023/03/25 06:27:33;;;;;;;4.40;2.00;;;;;;;8.44;84.65;99423.59;5086347;28;20196;-65
2023/03/25 06:30:00;;;;;;;2.73;2.00;;;;;;;8.45;84.04;99430.59;5092403;28;20208;-65
2023/03/25 06:32:26;;;;;;;4.67;2.37;;;;;;;8.46;83.42;99421.69;5082430;28;21999;-65
2023/03/25 06:34:53;;;;;;;3.93;2.00;;;;;;;8.48;83.27;99431.22;5087854;28;20208;-65
2023/03/25 06:37:20;;;;;;;2.73;2.03;;;;;;;8.47;82.44;99428.69;5091750;28;20204;-65
2023/03/25 06:39:48;;;;;;;2.70;2.00;;;;;;;8.51;82.43;99427.50;5088549;28;20219;-66
2023/03/25 06:42:15;;;;;;;2.03;1.50;;;;;;;8.59;81.65;99435.75;5085496;28;20205;-65
2023/03/25 06:44:43;;;;;;;3.33;1.67;;;;;;;8.62;80.85;99431.03;5085182;28;20204;-65
2023/03/25 06:47:09;;;;;;;2.07;1.63;;;;;;;8.64;80.90;99438.91;5088537;28;20212;-65
2023/03/25 06:49:36;;;;;;;5.30;1.50;;;;;;;8.66;81.31;99435.16;5085691;28;20203;-65
2023/03/25 06:52:02;;;;;;;3.40;1.50;;;;;;;8.70;81.17;99433.13;5089785;28;20211;-66
2023/03/25 06:54:28;;;;;;;3.13;1.50;;;;;;;8.72;81.01;99436.53;5084537;28;20228;-66
2023/03/25 06:56:55;;;;;;;7.53;2.00;;;;;;;8.72;80.87;99443.66;5091610;28;20204;-66
2023/03/25 06:59:21;;;;;;;1.53;1.30;;;;;;;8.72;80.67;99439.19;5086670;28;20231;-66
2023/03/25 07:01:49;;;;;;;2.23;1.20;;;;;;;8.76;80.04;99435.34;5091551;28;20622;-65
2023/03/25 07:04:16;;;;;;;2.90;1.47;;;;;;;8.78;79.66;99448.50;5084679;28;20668;-65
2023/03/25 07:06:42;;;;;;;1.80;1.07;;;;;;;8.77;79.10;99436.19;5084400;28;20209;-65
2023/03/25 07:09:09;;;;;;;6.50;1.77;;;;;;;8.81;78.87;99449.09;5088496;28;20707;-65
2023/03/25 07:11:35;;;;;;;1.73;1.50;;;;;;;8.78;79.02;99445.84;5089191;28;20201;-66
2023/03/25 07:14:02;;;;;;;2.17;1.53;;;;;;;8.79;78.56;99451.00;5091279;28;20267;-65
2023/03/25 07:16:29;;;;;;;3.47;1.50;;;;;;;8.82;78.90;99442.81;5089761;28;20204;-65
2023/03/25 07:18:57;;;;;;;3.47;1.27;;;;;;;8.84;78.70;99442.72;5086522;28;20196;-65
2023/03/25 07:21:24;;;;;;;3.07;1.53;;;;;;;8.85;79.10;99444.41;5092823;28;20208;-65
2023/03/25 07:23:51;;;;;;;1.50;1.10;;;;;;;8.85;78.93;99439.09;5088747;28;20224;-66
2023/03/25 07:26:17;;;;;;;2.73;1.33;;;;;;;8.83;78.16;99448.97;5094626;28;20210;-66
2023/03/25 07:28:46;;;;;;;5.03;2.00;;;;;;;8.87;78.83;99443.34;5089587;28;20213;-66
2023/03/25 07:31:15;;;;;;;3.93;1.90;;;;;;;8.91;78.80;99428.88;5087758;28;20470;-65
2023/03/25 07:33:42;;;;;;;3.67;1.63;;;;;;;8.93;79.51;99442.88;5091106;28;20263;-65
2023/03/25 07:36:12;;;;;;;3.73;1.40;;;;;;;8.97;79.24;99436.34;5087199;28;20210;-65
2023/03/25 07:38:39;;;;;;;2.87;1.60;;;;;;;9.00;79.56;99454.72;5085596;28;20204;-65
2023/03/25 07:41:06;;;;;;;1.50;1.40;;;;;;;9.01;79.83;99445.78;5088056;28;20231;-66
2023/03/25 07:43:32;;;;;;;2.40;1.30;;;;;;;9.00;79.29;99444.09;5090961;28;20258;-65
2023/03/25 07:45:59;;;;;;;1.83;1.70;;;;;;;9.01;80.02;99445.78;5087857;28;20212;-66
2023/03/25 07:48:26;;;;;;;5.03;1.60;;;;;;;9.02;79.32;99451.94;5088879;28;21574;-66
2023/03/25 07:50:53;;;;;;;3.83;1.27;;;;;;;9.03;79.19;99433.25;5088292;28;20195;-66
2023/03/25 07:53:21;;;;;;;2.20;1.30;;;;;;;9.02;79.54;99447.47;5082594;28;20216;-65
2023/03/25 07:55:49;;;;;;;4.43;1.57;;;;;;;9.07;78.87;99446.28;5085046;28;20200;-65
2023/03/25 07:58:16;;;;;;;2.37;1.30;;;;;;;9.11;79.61;99458.38;5089206;28;20200;-69
2023/03/25 08:00:42;;;;;;;2.90;1.40;;;;;;;9.17;78.74;99452.56;5082183;28;20235;-69
2023/03/25 08:03:10;;;;;;;3.03;1.63;;;;;;;9.20;78.55;99460.31;5084104;28;20216;-69
2023/03/25 08:05:36;;;;;;;3.80;1.47;;;;;;;9.25;78.18;99463.47;5079985;28;20593;-70
2023/03/25 08:08:05;;;;;;;3.17;1.40;;;;;;;9.23;77.47;99465.41;5084637;28;20232;-70
2023/03/25 08:10:33;;;;;;;2.30;1.10;;;;;;;9.21;77.81;99454.03;5085324;28;20232;-71
2023/03/25 08:13:00;;;;;;;4.67;1.30;;;;;;;9.23;77.83;99462.75;5082646;28;20720;-71
2023/03/25 08:15:27;;;;;;;3.00;1.53;;;;;;;9.27;77.72;99472.19;5089799;28;20215;-70
2023/03/25 08:17:53;;;;;;;1.70;1.10;;;;;;;9.35;77.72;99467.94;5083150;28;20205;-71
2023/03/25 08:20:20;;;;;;;1.37;1.10;;;;;;;9.41;77.29;99469.31;5086049;28;20224;-70
2023/03/25 08:22:47;;;;;;;3.17;1.40;;;;;;;9.50;77.27;99468.56;5084991;28;20247;-70
2023/03/25 08:25:13;;;;;;;2.03;1.00;;;;;;;9.50;76.63;99465.06;5087417;28;20204;-70
2023/03/25 08:27:42;;;;;;;1.37;1.03;;;;;;;9.50;76.21;99467.72;5087490;28;20432;-70
2023/03/25 08:30:09;;;;;;;2.93;0.73;;;;;;;9.54;75.36;99442.63;5078827;28;20201;-71
2023/03/25 08:32:37;;;;;;;3.07;1.60;;;;;;;9.51;74.85;99464.94;5082155;28;20603;-72
2023/03/25 08:35:05;;;;;;;2.30;1.17;;;;;;;9.50;75.51;99468.56;5085644;28;20300;-72
2023/03/25 08:37:34;;;;;;;2.07;1.20;;;;;;;9.53;75.52;99468.34;5085350;28;20235;-72
2023/03/25 08:40:00;;;;;;;3.53;1.27;;;;;;;9.54;75.69;99470.03;5080910;28;20320;-71
2023/03/25 08:42:27;;;;;;;3.30;1.00;;;;;;;9.55;76.17;99458.44;5086031;28;22096;-71
2023/03/25 08:44:54;;;;;;;2.60;1.40;;;;;;;9.51;76.05;99470.28;5075997;28;20604;-72
2023/03/25 08:47:21;;;;;;;3.20;1.13;;;;;;;9.52;76.03;99461.34;5082084;28;20675;-71
2023/03/25 08:49:47;;;;;;;4.90;1.10;;;;;;;9.51;76.39;99470.28;5086360;28;20204;-71
2023/03/25 08:52:15;;;;;;;1.90;1.30;;;;;;;9.55;76.07;99462.91;5086809;28;20204;-71
2023/03/25 08:54:41;;;;;;;3.20;1.00;;;;;;;9.56;75.79;99465.44;5086367;28;20200;-71
2023/03/25 08:57:08;;;;;;;4.00;0.87;;;;;;;9.57;75.70;99464.50;5086720;28;20208;-70
2023/03/25 08:59:34;;;;;;;1.97;0.93;;;;;;;9.59;75.49;99451.94;5080853;28;20196;-70
2023/03/25 09:02:03;;;;;;;3.40;1.13;;;;;;;9.61;75.81;99450.00;5079806;28;20211;-71
2023/03/25 09:04:29;;;;;;;1.30;1.20;;;;;;;9.65;75.46;99464.75;5076708;28;20274;-70
2023/03/25 09:06:56;;;;;;;1.07;0.80;;;;;;;9.65;75.43;99456.78;5076892;28;20295;-71
2023/03/25 09:09:23;;;;;;;5.83;1.37;;;;;;;9.65;75.90;99463.91;5076919;28;20224;-71
2023/03/25 09:11:49;;;;;;;1.33;0.93;;;;;;;9.68;76.02;99461.81;5079853;28;20257;-70
2023/03/25 09:14:16;;;;;;;1.17;0.90;;;;;;;9.70;76.30;99470.53;5079492;28;20651;-71
2023/03/25 09:16:42;;;;;;;2.33;0.90;;;;;;;9.69;76.25;99462.66;5081696;28;20722;-70
2023/03/25 09:19:11;;;;;;;1.77;0.80;;;;;;;9.69;76.07;99460.84;5084815;28;20642;-71
2023/03/25 09:21:37;;;;;;;1.40;0.80;;;;;;;9.70;75.02;99461.72;5082234;28;20659;-71
2023/03/25 09:24:05;;;;;;;11.63;1.87;;;;;;;9.70;75.55;99457.22;5081080;28;20600;-70
2023/03/25 09:26:31;;;;;;;1.53;0.73;;;;;;;9.74;75.29;99436.56;5081315;28;20648;-70
2023/03/25 09:28:59;;;;;;;2.33;0.60;;;;;;;9.74;73.70;99447.22;5084849;28;20203;-71
2023/03/25 09:31:26;;;;;;;1.47;1.00;;;;;;;9.83;73.16;99456.28;5082567;28;20212;-71
2023/03/25 09:33:52;;;;;;;2.53;1.13;;;;;;;9.83;72.56;99466.94;5086455;28;20228;-70
2023/03/25 09:36:20;;;;;;;1.60;0.80;;;;;;;9.89;72.75;99458.44;5084832;28;20196;-71
2023/03/25 09:38:46;;;;;;;2.23;1.07;;;;;;;9.93;72.32;99473.19;5087035;28;20204;-70
2023/03/25 09:41:26;;;;;;;4.27;1.20;;;;;;;9.95;72.46;99456.16;5077059;28;20228;-68
2023/03/25 09:44:03;;;;;;;3.27;1.40;;;;;;;10.02;71.91;99453.84;5080542;28;20750;-69
2023/03/25 09:46:30;;;;;;;1.00;0.80;;;;;;;10.18;72.45;99467.63;5080363;28;20196;-68
2023/03/25 09:48:58;;;;;;;2.93;0.93;;;;;;;10.27;70.20;99461.56;5081761;28;20208;-68
2023/03/25 09:51:29;;;;;;;2.07;0.80;;;;;;;10.32;68.95;99459.41;5080750;28;20197;-70
2023/03/25 09:54:01;;;;;;;1.63;0.90;;;;;;;10.37;68.47;99459.03;5087352;28;20229;-70
2023/03/25 09:56:30;;;;;;;4.77;1.43;;;;;;;10.44;67.75;99455.72;5088120;28;20211;-69
2023/03/25 09:59:01;;;;;;;2.30;0.87;;;;;;;10.48;66.93;99445.69;5083050;28;20573;-69
2023/03/25 10:01:38;;;;;;;2.07;0.80;;;;;;;10.53;67.41;99461.28;5089492;28;20246;-67
2023/03/25 10:04:33;;;;;;;2.73;0.97;;;;;;;10.56;67.53;99451.22;5084234;28;20227;-69
2023/03/25 10:07:11;;;;;;;1.50;0.93;;;;;;;10.60;67.21;99462.44;5082035;28;20207;-71
2023/03/25 10:09:46;;;;;;;2.63;0.90;;;;;;;10.63;67.05;99456.88;5082973;28;20204;-72
2023/03/25 10:12:32;;;;;;;1.83;0.90;;;;;;;10.63;66.80;99467.53;5081049;28;20197;-72
2023/03/25 10:15:11;;;;;;;4.13;1.00;;;;;;;10.61;66.62;99472.13;5078055;28;20207;-68
2023/03/25 10:17:53;;;;;;;2.17;0.90;;;;;;;10.58;66.36;99473.22;5087133;28;20200;-71
2023/03/25 10:20:25;;;;;;;2.67;0.80;;;;;;;10.54;66.82;99470.97;5082981;28;21432;-67
2023/03/25 10:23:04;;;;;;;2.00;1.10;;;;;;;10.48;67.05;99461.66;5084377;28;20581;-68
2023/03/25 10:25:34;;;;;;;2.43;0.87;;;;;;;10.49;66.97;99458.03;5086310;28;20214;-71
2023/03/25 10:28:03;;;;;;;2.70;0.93;;;;;;;10.51;67.27;99450.75;5073951;28;20283;-73
2023/03/25 10:30:34;;;;;;;4.67;1.47;;;;;;;10.50;66.42;99457.06;5074548;28;20205;-73
2023/03/25 10:33:04;;;;;;;3.33;1.30;;;;;;;10.53;66.43;99454.13;5082825;28;20243;-72
2023/03/25 10:35:35;;;;;;;3.07;1.30;;;;;;;10.57;66.12;99433.44;5080981;28;20209;-71
2023/03/25 10:38:10;;;;;;;4.43;1.20;;;;;;;10.63;66.41;99446.22;5085460;28;20211;-72
2023/03/25 10:40:43;;;;;;;2.80;1.47;;;;;;;10.74;65.99;99430.22;5086729;28;20743;-71
2023/03/25 10:43:18;;;;;;;4.93;2.07;;;;;;;10.86;65.67;99431.84;5083242;28;20229;-72
2023/03/25 10:45:46;;;;;;;3.57;1.90;;;;;;;11.01;65.32;99427.91;5087308;28;20206;-71
2023/03/25 10:48:20;;;;;;;4.97;2.30;;;;;;;11.05;63.18;99437.31;5083698;28;20321;-70
2023/03/25 10:50:48;;;;;;;5.33;1.43;;;;;;;11.09;62.60;99448.56;5085474;28;20592;-72
2023/03/25 10:53:23;;;;;;;4.13;1.73;;;;;;;11.10;62.40;99437.78;5077962;28;20260;-70
2023/03/25 10:55:55;;;;;;;4.50;1.53;;;;;;;11.09;62.19;99446.75;5085641;28;20209;-70
2023/03/25 10:58:23;;;;;;;3.07;1.30;;;;;;;11.05;62.65;99429.34;5084205;28;20217;-70
2023/03/25 11:00:50;;;;;;;2.80;1.60;;;;;;;11.06;62.85;99441.69;5085635;28;20225;-70
2023/03/25 11:03:22;;;;;;;4.07;1.40;;;;;;;11.04;62.76;99448.97;5087061;28;20235;-70
2023/03/25 11:05:48;;;;;;;2.70;1.60;;;;;;;11.05;63.28;99439.16;5076532;28;20212;-70
2023/03/25 11:08:20;;;;;;;3.57;1.23;;;;;;;11.10;63.55;99424.47;5082869;28;20672;-70
2023/03/25 11:10:50;;;;;;;3.27;1.40;;;;;;;11.08;62.99;99428.22;5084139;28;20210;-70
2023/03/25 11:13:20;;;;;;;4.60;1.73;;;;;;;11.11;63.01;99427.94;5080327;28;20231;-70
2023/03/25 11:15:48;;;;;;;3.50;1.27;;;;;;;11.19;62.73;99408.66;5084540;28;20313;-70
2023/03/25 11:18:20;;;;;;;7.27;1.60;;;;;;;11.31;63.03;99412.91;5074451;28;20949;-70
2023/03/25 11:20:50;;;;;;;3.90;1.70;;;;;;;11.48;63.10;99414.97;5088019;28;20329;-70
2023/03/25 11:23:24;;;;;;;3.43;1.60;;;;;;;11.59;62.38;99427.41;5085546;28;20229;-70
2023/03/25 11:25:52;;;;;;;3.07;1.50;;;;;;;11.68;61.63;99421.25;5087534;28;20198;-71
2023/03/25 11:28:24;;;;;;;4.03;1.50;;;;;;;11.70;60.07;99420.13;5080811;28;20215;-71
2023/03/25 11:31:12;;;;;;;4.60;1.63;;;;;;;11.69;60.34;99421.13;5082696;28;20201;-72
2023/03/25 11:33:39;;;;;;;6.17;1.67;;;;;;;11.74;59.97;99431.38;5084368;28;20233;-71
2023/03/25 11:36:24;;;;;;;6.83;1.70;;;;;;;11.80;60.75;99423.75;5082032;28;20205;-71
2023/03/25 11:38:58;;;;;;;4.37;1.53;;;;;;;11.80;59.86;99418.41;5086063;28;20673;-71
2023/03/25 11:41:29;;;;;;;5.87;1.90;;;;;;;11.81;60.34;99416.59;5084130;28;20223;-71
2023/03/25 11:43:55;;;;;;;4.90;2.00;;;;;;;11.86;60.69;99417.00;5088202;28;20238;-73
2023/03/25 11:46:23;;;;;;;3.50;1.50;;;;;;;11.92;60.11;99412.97;5080137;28;20269;-72
2023/03/25 11:48:49;;;;;;;4.53;1.57;;;;;;;11.95;59.63;99415.34;5085336;28;20206;-71
2023/03/25 11:51:21;;;;;;;5.80;1.70;;;;;;;11.97;59.61;99427.59;5080953;28;20215;-71